createdAt,value
2023-05-19T00:02:22.904Z,102663.16
2023-05-19T00:04:51.091Z,102670.88
2023-05-19T00:07:20.429Z,102672.03
2023-05-19T00:09:48.797Z,102655.41
2023-05-19T00:12:17.273Z,102652.28
2023-05-19T00:14:47.038Z,102678.94
2023-05-19T00:17:16.901Z,102677.22
2023-05-19T00:19:45.174Z,102672.16
2023-05-19T00:22:13.019Z,102666.09
2023-05-19T00:24:40.769Z,102667.53
2023-05-19T00:27:08.638Z,102664.69
2023-05-19T00:29:36.386Z,102660.31
2023-05-19T00:32:06.275Z,102665.31
2023-05-19T00:34:34.301Z,102696.13
2023-05-19T00:37:02.073Z,102699.63
2023-05-19T00:39:29.816Z,102700.13
2023-05-19T00:41:57.579Z,102683.91
2023-05-19T00:44:25.307Z,102673.88
2023-05-19T00:46:53.100Z,102651.72
2023-05-19T00:49:22.268Z,102636.06
2023-05-19T00:51:50.664Z,102649.16
2023-05-19T00:54:18.662Z,102637.56
2023-05-19T00:56:46.425Z,102641.94
2023-05-19T00:59:14.228Z,102641.38
2023-05-19T01:01:42.051Z,102632.78
2023-05-19T01:04:11.375Z,102621.97
2023-05-19T01:06:40.976Z,102622.78
2023-05-19T01:09:09.075Z,102640.28
2023-05-19T01:11:36.838Z,102619.06
2023-05-19T01:14:04.639Z,102648.34
2023-05-19T01:16:38.060Z,102637.22
2023-05-19T01:19:21.900Z,102633.13
2023-05-19T01:22:28.851Z,102638.88
2023-05-19T01:25:32.336Z,102645.78
2023-05-19T01:28:27.398Z,102616.06
2023-05-19T01:30:59.378Z,102642.78
2023-05-19T01:33:29.651Z,102645.25
2023-05-19T01:35:59.299Z,102665.38
2023-05-19T01:38:29.377Z,102656.91
2023-05-19T01:40:58.344Z,102639.44
2023-05-19T01:43:28.666Z,102632.22
2023-05-19T01:45:59.011Z,102634.91
2023-05-19T01:48:28.099Z,102664.38
2023-05-19T01:50:57.311Z,102656.25
2023-05-19T01:53:25.379Z,102637.63
2023-05-19T01:55:58.385Z,102625.47
2023-05-19T01:58:36.727Z,102603.75
2023-05-19T02:01:14.277Z,102599.72
2023-05-19T02:03:55.051Z,102615.88
2023-05-19T02:06:33.834Z,102590.31
2023-05-19T02:09:05.354Z,102605.38
2023-05-19T02:11:38.570Z,102614.78
2023-05-19T02:14:14.704Z,102629.03
2023-05-19T02:16:46.638Z,102626.75
2023-05-19T02:19:25.825Z,102640.56
2023-05-19T02:21:54.147Z,102647.84
2023-05-19T02:24:22.828Z,102649.78
2023-05-19T02:26:51.843Z,102654.28
2023-05-19T02:29:20.195Z,102686.66
2023-05-19T02:31:49.398Z,102686.56
2023-05-19T02:34:17.225Z,102649.72
2023-05-19T02:36:45.139Z,102635.41
2023-05-19T02:39:13.388Z,102647.44
2023-05-19T02:41:41.153Z,102654.31
2023-05-19T02:44:08.925Z,102694.41
2023-05-19T02:46:36.721Z,102693.13
2023-05-19T02:49:05.932Z,102688.25
2023-05-19T02:51:33.667Z,102715.00
2023-05-19T02:54:01.416Z,102702.38
2023-05-19T02:56:29.242Z,102669.34
2023-05-19T02:58:58.468Z,102684.50
2023-05-19T03:01:26.377Z,102697.56
2023-05-19T03:03:54.220Z,102693.97
2023-05-19T03:06:24.331Z,102701.44
2023-05-19T03:08:52.365Z,102709.44
2023-05-19T03:11:20.122Z,102694.38
2023-05-19T03:13:47.865Z,102719.22
2023-05-19T03:16:15.641Z,102706.88
2023-05-19T03:18:44.072Z,102696.69
2023-05-19T03:21:11.854Z,102673.84
2023-05-19T03:23:41.137Z,102691.34
2023-05-19T03:26:08.957Z,102692.13
2023-05-19T03:28:36.686Z,102675.06
2023-05-19T03:31:04.625Z,102626.91
2023-05-19T03:33:32.447Z,102640.09
2023-05-19T03:36:00.255Z,102629.38
2023-05-19T03:38:27.994Z,102595.47
2023-05-19T03:40:57.087Z,102584.16
2023-05-19T03:43:24.881Z,102569.47
2023-05-19T03:45:53.537Z,102549.75
2023-05-19T03:48:21.482Z,102540.94
2023-05-19T03:50:50.164Z,102546.50
2023-05-19T03:53:17.914Z,102524.88
2023-05-19T03:55:46.358Z,102526.41
2023-05-19T03:58:15.951Z,102542.72
2023-05-19T04:00:43.872Z,102570.53
2023-05-19T04:03:11.809Z,102574.34
2023-05-19T04:05:39.814Z,102578.06
2023-05-19T04:08:07.584Z,102594.09
2023-05-19T04:10:35.360Z,102604.00
2023-05-19T04:13:03.193Z,102604.16
2023-05-19T04:15:32.383Z,102497.00
2023-05-19T04:18:00.358Z,102514.94
2023-05-19T04:20:28.150Z,102585.53
2023-05-19T04:22:55.900Z,102617.66
2023-05-19T04:25:25.279Z,102612.72
2023-05-19T04:27:53.142Z,102655.50
2023-05-19T04:30:22.556Z,102667.50
2023-05-19T04:32:53.760Z,102673.66
2023-05-19T04:35:22.534Z,102633.91
2023-05-19T04:37:50.347Z,102653.38
2023-05-19T04:40:18.114Z,102608.78
2023-05-19T04:42:46.222Z,102633.19
2023-05-19T04:45:14.875Z,102623.69
2023-05-19T04:47:43.183Z,102594.38
2023-05-19T04:50:12.926Z,102596.91
2023-05-19T04:52:41.675Z,102599.16
2023-05-19T04:55:11.281Z,102616.38
2023-05-19T04:57:39.120Z,102624.69
2023-05-19T05:00:12.230Z,102630.25
2023-05-19T05:02:40.083Z,102645.94
2023-05-19T05:05:09.460Z,102615.53
2023-05-19T05:07:38.576Z,102610.06
2023-05-19T05:10:07.908Z,102644.31
2023-05-19T05:12:36.700Z,102641.75
2023-05-19T05:15:06.910Z,102667.06
2023-05-19T05:17:35.585Z,102675.44
2023-05-19T05:20:06.160Z,102707.59
2023-05-19T05:22:34.640Z,102712.25
2023-05-19T05:25:04.837Z,102711.66
2023-05-19T05:27:32.745Z,102718.66
2023-05-19T05:30:00.684Z,102731.03
2023-05-19T05:32:28.563Z,102740.66
2023-05-19T05:34:56.538Z,102739.22
2023-05-19T05:37:24.288Z,102731.00
2023-05-19T05:39:52.077Z,102741.53
2023-05-19T05:42:21.340Z,102746.66
2023-05-19T05:44:49.459Z,102748.38
2023-05-19T05:47:17.767Z,102745.78
2023-05-19T05:49:48.192Z,102746.69
2023-05-19T05:52:16.853Z,102737.88
2023-05-19T05:54:46.324Z,102716.97
2023-05-19T05:57:14.568Z,102706.59
2023-05-19T05:59:45.439Z,102717.81
2023-05-19T06:02:13.308Z,102733.69
2023-05-19T06:04:41.874Z,102746.53
2023-05-19T06:07:09.681Z,102735.78
2023-05-19T06:09:37.433Z,102747.84
2023-05-19T06:12:06.604Z,102765.69
2023-05-19T06:14:34.399Z,102777.69
2023-05-19T06:17:03.532Z,102763.63
2023-05-19T06:19:31.833Z,102804.06
2023-05-19T06:21:59.622Z,102788.41
2023-05-19T06:24:27.423Z,102777.13
2023-05-19T06:26:55.163Z,102793.97
2023-05-19T06:29:22.919Z,102793.28
2023-05-19T06:31:50.731Z,102779.69
2023-05-19T06:34:21.001Z,102767.72
2023-05-19T06:36:48.748Z,102794.50
2023-05-19T06:39:16.514Z,102795.91
2023-05-19T06:41:44.253Z,102798.34
2023-05-19T06:44:12.370Z,102795.78
2023-05-19T06:46:40.735Z,102777.44
2023-05-19T06:49:08.520Z,102789.63
2023-05-19T06:51:37.662Z,102785.63
2023-05-19T06:54:05.521Z,102788.09
2023-05-19T06:56:33.363Z,102782.56
2023-05-19T06:59:01.160Z,102786.81
2023-05-19T07:01:30.170Z,102796.75
2023-05-19T07:03:58.155Z,102790.84
2023-05-19T07:06:26.090Z,102803.59
2023-05-19T07:08:55.256Z,102798.22
2023-05-19T07:11:23.399Z,102810.81
2023-05-19T07:13:51.153Z,102803.28
2023-05-19T07:16:18.994Z,102801.59
2023-05-19T07:18:46.783Z,102810.13
2023-05-19T07:21:14.603Z,102810.78
2023-05-19T07:23:42.354Z,102827.28
2023-05-19T07:26:11.692Z,102828.22
2023-05-19T07:28:41.494Z,102835.19
2023-05-19T07:31:09.544Z,102841.53
2023-05-19T07:33:37.314Z,102840.59
2023-05-19T07:36:05.494Z,102839.97
2023-05-19T07:38:34.706Z,102844.25
2023-05-19T07:41:02.605Z,102845.47
2023-05-19T07:43:31.790Z,102862.56
2023-05-19T07:45:59.682Z,102848.69
2023-05-19T07:48:27.451Z,102855.81
2023-05-19T07:50:55.254Z,102850.13
2023-05-19T07:53:23.016Z,102843.03
2023-05-19T07:55:50.819Z,102845.28
2023-05-19T07:58:19.601Z,102849.72
2023-05-19T08:00:48.736Z,102849.34
2023-05-19T08:03:18.403Z,102847.78
2023-05-19T08:05:46.343Z,102847.19
2023-05-19T08:08:16.909Z,102850.81
2023-05-19T08:10:44.846Z,102843.00
2023-05-19T08:13:12.741Z,102847.47
2023-05-19T08:15:41.139Z,102848.81
2023-05-19T08:18:10.423Z,102853.66
2023-05-19T08:20:38.208Z,102849.50
2023-05-19T08:23:06.126Z,102854.88
2023-05-19T08:25:33.928Z,102845.97
2023-05-19T08:28:01.775Z,102846.41
2023-05-19T08:30:29.588Z,102843.88
2023-05-19T08:32:57.413Z,102840.16
2023-05-19T08:35:26.757Z,102840.84
2023-05-19T08:37:54.625Z,102836.06
2023-05-19T08:40:22.458Z,102842.31
2023-05-19T08:42:50.712Z,102838.06
2023-05-19T08:45:18.824Z,102848.66
2023-05-19T08:47:47.483Z,102842.72
2023-05-19T08:50:22.945Z,102841.41
2023-05-19T08:52:53.914Z,102840.78
2023-05-19T08:55:34.306Z,102829.34
2023-05-19T08:58:04.566Z,102830.31
2023-05-19T09:00:33.774Z,102827.22
2023-05-19T09:03:17.562Z,102828.00
2023-05-19T09:05:50.270Z,102822.19
2023-05-19T09:08:19.425Z,102821.69
2023-05-19T09:10:47.426Z,102822.00
2023-05-19T09:13:15.219Z,102819.31
2023-05-19T09:15:43.564Z,102813.63
2023-05-19T09:18:13.423Z,102818.75
2023-05-19T09:20:42.558Z,102811.50
2023-05-19T09:23:14.814Z,102810.28
2023-05-19T09:25:50.408Z,102815.84
2023-05-19T09:28:25.282Z,102810.72
2023-05-19T09:31:00.633Z,102799.00
2023-05-19T09:33:28.542Z,102801.75
2023-05-19T09:35:56.799Z,102799.47
2023-05-19T09:38:25.603Z,102803.47
2023-05-19T09:40:57.496Z,102795.84
2023-05-19T09:43:25.350Z,102795.28
2023-05-19T09:45:56.702Z,102800.13
2023-05-19T09:48:27.654Z,102793.69
2023-05-19T09:50:56.690Z,102799.41
2023-05-19T09:53:26.182Z,102791.25
2023-05-19T09:55:58.827Z,102796.09
2023-05-19T09:58:27.120Z,102802.31
2023-05-19T10:00:55.487Z,102795.72
2023-05-19T10:03:24.784Z,102778.25
2023-05-19T10:05:54.442Z,102787.22
2023-05-19T10:08:24.459Z,102774.25
2023-05-19T10:10:52.457Z,102763.38
2023-05-19T10:13:22.960Z,102767.66
2023-05-19T10:18:26.873Z,102754.66
2023-05-19T10:20:55.755Z,102769.88
2023-05-19T10:23:24.008Z,102762.31
2023-05-19T10:25:53.277Z,102757.25
2023-05-19T10:28:27.949Z,102746.69
2023-05-19T10:30:59.775Z,102746.69
2023-05-19T10:33:41.170Z,102743.66
2023-05-19T10:36:24.659Z,102748.00
2023-05-19T10:38:59.952Z,102735.47
2023-05-19T10:41:32.744Z,102741.69
2023-05-19T10:44:10.909Z,102737.97
2023-05-19T10:46:41.356Z,102741.53
2023-05-19T10:49:09.071Z,102741.03
2023-05-19T10:51:37.222Z,102756.13
2023-05-19T10:54:11.521Z,102748.47
2023-05-19T10:56:42.517Z,102725.06
2023-05-19T10:59:32.215Z,102734.06
2023-05-19T11:02:04.714Z,102734.59
2023-05-19T11:04:51.113Z,102732.91
2023-05-19T11:07:20.968Z,102748.94
2023-05-19T11:09:52.497Z,102739.50
2023-05-19T11:12:25.099Z,102744.91
2023-05-19T11:14:56.095Z,102731.13
2023-05-19T11:17:27.448Z,102745.59
2023-05-19T11:19:56.355Z,102743.72
2023-05-19T11:22:26.243Z,102735.94
2023-05-19T11:24:56.551Z,102735.72
2023-05-19T11:27:27.298Z,102726.09
2023-05-19T11:29:57.477Z,102727.38
2023-05-19T11:32:29.306Z,102723.28
2023-05-19T11:34:57.691Z,102733.31
2023-05-19T11:37:25.587Z,102732.03
2023-05-19T11:39:53.877Z,102727.69
2023-05-19T11:42:21.773Z,102730.59
2023-05-19T11:44:50.167Z,102720.50
2023-05-19T11:47:19.237Z,102713.06
2023-05-19T11:49:49.634Z,102705.47
2023-05-19T11:52:17.514Z,102717.44
2023-05-19T11:54:49.878Z,102706.69
2023-05-19T11:57:18.249Z,102705.97
2023-05-19T11:59:48.246Z,102711.03
2023-05-19T12:02:19.883Z,102713.41
2023-05-19T12:04:48.346Z,102712.22
2023-05-19T12:07:18.681Z,102707.31
2023-05-19T12:09:47.044Z,102701.59
2023-05-19T12:12:15.907Z,102701.66
2023-05-19T12:14:44.068Z,102711.50
2023-05-19T12:17:13.351Z,102711.25
2023-05-19T12:19:44.952Z,102699.78
2023-05-19T12:22:13.804Z,102706.59
2023-05-19T12:24:42.758Z,102699.53
2023-05-19T12:27:18.190Z,102697.88
2023-05-19T12:29:51.258Z,102692.38
2023-05-19T12:32:19.705Z,102690.50
2023-05-19T12:34:49.181Z,102689.47
2023-05-19T12:37:16.986Z,102697.16
2023-05-19T12:39:45.413Z,102688.31
2023-05-19T12:42:13.555Z,102693.44
2023-05-19T12:44:46.680Z,102684.50
2023-05-19T12:47:14.914Z,102678.81
2023-05-19T12:49:56.889Z,102679.78
2023-05-19T12:52:24.769Z,102683.34
2023-05-19T12:54:59.655Z,102679.59
2023-05-19T12:57:27.813Z,102674.22
2023-05-19T13:00:01.502Z,102679.81
2023-05-19T13:02:29.400Z,102690.31
2023-05-19T13:04:58.775Z,102676.69
2023-05-19T13:07:26.605Z,102674.31
2023-05-19T13:09:54.343Z,102678.88
2023-05-19T13:12:22.123Z,102676.31
2023-05-19T13:14:49.835Z,102674.88
2023-05-19T13:17:18.012Z,102672.78
2023-05-19T13:19:45.991Z,102673.78
2023-05-19T13:22:15.123Z,102663.66
2023-05-19T13:24:42.865Z,102661.09
2023-05-19T13:27:10.646Z,102663.06
2023-05-19T13:29:38.352Z,102657.00
2023-05-19T13:32:06.628Z,102654.59
2023-05-19T13:34:34.356Z,102655.78
2023-05-19T13:37:02.130Z,102662.72
2023-05-19T13:39:31.282Z,102656.25
2023-05-19T13:41:59.709Z,102639.25
2023-05-19T13:44:27.611Z,102640.59
2023-05-19T13:46:55.353Z,102653.59
2023-05-19T13:49:23.206Z,102644.66
2023-05-19T13:51:50.941Z,102639.84
2023-05-19T13:54:19.073Z,102644.13
2023-05-19T13:56:48.711Z,102646.03
2023-05-19T13:59:17.228Z,102635.72
2023-05-19T14:01:45.418Z,102644.47
2023-05-19T14:04:14.136Z,102647.00
2023-05-19T14:06:42.032Z,102640.75
2023-05-19T14:09:09.782Z,102632.19
2023-05-19T14:11:37.536Z,102649.13
2023-05-19T14:14:08.392Z,102638.59
2023-05-19T14:16:38.297Z,102639.03
2023-05-19T14:19:06.220Z,102636.75
2023-05-19T14:21:34.062Z,102647.50
2023-05-19T14:24:02.503Z,102660.94
2023-05-19T14:26:30.309Z,102648.25
2023-05-19T14:28:58.226Z,102644.63
2023-05-19T14:31:27.393Z,102637.03
2023-05-19T14:33:55.730Z,102634.28
2023-05-19T14:36:23.534Z,102647.28
2023-05-19T14:38:53.326Z,102649.94
2023-05-19T14:41:21.543Z,102643.84
2023-05-19T14:43:49.276Z,102651.38
2023-05-19T14:46:17.163Z,102655.06
2023-05-19T14:48:46.411Z,102652.63
2023-05-19T14:51:14.200Z,102642.50
2023-05-19T14:53:41.981Z,102636.56
2023-05-19T14:56:09.724Z,102646.66
2023-05-19T14:58:37.491Z,102645.72
2023-05-19T15:01:05.573Z,102650.53
2023-05-19T15:03:33.355Z,102649.28
2023-05-19T15:06:02.490Z,102655.91
2023-05-19T15:08:30.265Z,102653.91
2023-05-19T15:10:58.050Z,102658.41
2023-05-19T15:13:26.346Z,102647.44
2023-05-19T15:16:08.357Z,102656.97
2023-05-19T15:18:43.466Z,102663.50
2023-05-19T15:21:12.745Z,102662.31
2023-05-19T15:23:40.543Z,102665.97
2023-05-19T15:26:08.387Z,102652.97
2023-05-19T15:28:36.122Z,102657.16
2023-05-19T15:31:04.054Z,102663.47
2023-05-19T15:33:32.154Z,102662.81
2023-05-19T15:35:59.936Z,102658.28
2023-05-19T15:38:30.117Z,102667.78
2023-05-19T15:40:58.460Z,102664.53
2023-05-19T15:43:26.244Z,102666.88
2023-05-19T15:45:55.218Z,102665.56
2023-05-19T15:48:23.044Z,102672.59
2023-05-19T15:50:51.917Z,102672.75
2023-05-19T15:53:20.262Z,102682.63
2023-05-19T15:55:49.359Z,102686.25
2023-05-19T15:58:17.779Z,102683.38
2023-05-19T16:00:45.621Z,102690.81
2023-05-19T16:03:13.470Z,102695.97
2023-05-19T16:05:41.290Z,102697.75
2023-05-19T16:08:09.053Z,102695.22
2023-05-19T16:10:36.850Z,102690.69
2023-05-19T16:13:05.995Z,102685.75
2023-05-19T16:15:33.745Z,102684.94
2023-05-19T16:18:01.573Z,102677.94
2023-05-19T16:20:29.834Z,102679.53
2023-05-19T16:22:57.771Z,102670.63
2023-05-19T16:25:25.914Z,102666.09
2023-05-19T16:27:53.656Z,102675.53
2023-05-19T16:30:23.098Z,102677.84
2023-05-19T16:32:53.072Z,102675.16
2023-05-19T16:35:21.137Z,102686.13
2023-05-19T16:37:49.104Z,102688.38
2023-05-19T16:40:17.029Z,102693.84
2023-05-19T16:42:44.774Z,102686.28
2023-05-19T16:45:12.764Z,102684.84
2023-05-19T16:47:41.922Z,102692.75
2023-05-19T16:50:10.811Z,102692.53
2023-05-19T16:52:38.609Z,102685.38
2023-05-19T16:55:07.065Z,102684.81
2023-05-19T16:57:34.811Z,102696.06
2023-05-19T17:00:03.600Z,102698.41
2023-05-19T17:02:31.463Z,102684.94
2023-05-19T17:05:00.642Z,102681.38
2023-05-19T17:07:29.157Z,102687.44
2023-05-19T17:09:57.057Z,102683.91
2023-05-19T17:12:24.858Z,102685.59
2023-05-19T17:14:53.019Z,102687.31
2023-05-19T17:17:20.784Z,102673.97
2023-05-19T17:19:48.507Z,102682.38
2023-05-19T17:22:17.590Z,102674.31
2023-05-19T17:24:45.751Z,102676.81
2023-05-19T17:29:42.940Z,102674.72
2023-05-19T17:32:10.736Z,102671.88
2023-05-19T17:34:39.203Z,102684.78
2023-05-19T17:37:06.968Z,102685.56
2023-05-19T17:39:36.181Z,102677.13
2023-05-19T17:42:03.946Z,102690.41
2023-05-19T17:44:31.674Z,102687.13
2023-05-19T17:47:00.393Z,102693.06
2023-05-19T17:49:28.169Z,102699.47
2023-05-19T17:51:56.441Z,102692.47
2023-05-19T17:54:26.214Z,102702.59
2023-05-19T17:56:59.137Z,102707.47
2023-05-19T17:59:27.437Z,102709.13
2023-05-19T18:01:55.862Z,102718.22
2023-05-19T18:04:23.857Z,102720.03
2023-05-19T18:06:52.983Z,102715.38
2023-05-19T18:09:21.366Z,102717.19
2023-05-19T18:11:49.237Z,102722.69
2023-05-19T18:14:18.492Z,102731.50
2023-05-19T18:16:47.211Z,102727.38
2023-05-19T18:19:15.105Z,102730.69
2023-05-19T18:21:43.157Z,102731.53
2023-05-19T18:24:11.358Z,102730.69
2023-05-19T18:26:41.879Z,102730.06
2023-05-19T18:29:10.423Z,102734.97
2023-05-19T18:31:39.802Z,102735.34
2023-05-19T18:34:07.778Z,102740.41
2023-05-19T18:36:36.204Z,102748.50
2023-05-19T18:39:04.499Z,102751.81
2023-05-19T18:41:32.613Z,102756.25
2023-05-19T18:44:00.422Z,102748.69
2023-05-19T18:46:28.175Z,102759.13
2023-05-19T18:48:57.366Z,102768.81
2023-05-19T18:51:25.128Z,102770.38
2023-05-19T18:53:52.934Z,102773.47
2023-05-19T18:56:24.254Z,102776.91
2023-05-19T18:58:52.066Z,102787.34
2023-05-19T19:01:19.890Z,102787.78
2023-05-19T19:03:49.222Z,102790.03
2023-05-19T19:06:20.612Z,102789.41
2023-05-19T19:08:50.505Z,102794.75
2023-05-19T19:11:18.385Z,102793.84
2023-05-19T19:13:46.294Z,102793.84
2023-05-19T19:16:14.043Z,102801.66
2023-05-19T19:18:42.098Z,102806.84
2023-05-19T19:21:09.898Z,102796.81
2023-05-19T19:23:39.259Z,102803.19
2023-05-19T19:26:08.539Z,102803.13
2023-05-19T19:28:36.511Z,102808.47
2023-05-19T19:31:04.395Z,102814.72
2023-05-19T19:33:32.174Z,102811.00
2023-05-19T19:36:00.038Z,102811.84
2023-05-19T19:38:27.970Z,102815.72
2023-05-19T19:40:57.140Z,102814.63
2023-05-19T19:43:24.870Z,102817.09
2023-05-19T19:45:59.902Z,102820.88
2023-05-19T19:48:27.932Z,102825.97
2023-05-19T19:50:55.945Z,102824.38
2023-05-19T19:53:23.858Z,102820.31
2023-05-19T19:56:00.000Z,102814.44
2023-05-19T19:58:28.662Z,102815.00
2023-05-19T20:01:00.244Z,102828.63
2023-05-19T20:03:28.359Z,102822.69
2023-05-19T20:05:57.568Z,102827.06
2023-05-19T20:08:25.823Z,102823.66
2023-05-19T20:10:53.873Z,102826.41
2023-05-19T20:13:23.016Z,102824.44
2023-05-19T20:15:51.097Z,102815.00
2023-05-19T20:18:18.937Z,102822.81
2023-05-19T20:20:46.689Z,102829.72
2023-05-19T20:23:16.213Z,102823.91
2023-05-19T20:26:02.457Z,102825.81
2023-05-19T20:28:35.052Z,102817.91
2023-05-19T20:31:02.884Z,102825.38
2023-05-19T20:33:31.681Z,102826.47
2023-05-19T20:35:59.534Z,102823.78
2023-05-19T20:38:27.313Z,102817.09
2023-05-19T20:40:55.149Z,102826.81
2023-05-19T20:43:22.909Z,102824.88
2023-05-19T20:45:52.327Z,102834.72
2023-05-19T20:48:20.179Z,102833.16
2023-05-19T20:50:47.927Z,102827.31
2023-05-19T20:53:15.746Z,102836.28
2023-05-19T20:55:45.418Z,102838.22
2023-05-19T20:58:13.229Z,102837.41
2023-05-19T21:00:41.300Z,102835.97
2023-05-19T21:03:11.615Z,102840.19
2023-05-19T21:05:39.532Z,102837.72
2023-05-19T21:08:12.697Z,102836.53
2023-05-19T21:10:40.959Z,102843.72
2023-05-19T21:13:08.851Z,102828.94
2023-05-19T21:15:36.713Z,102834.53
2023-05-19T21:18:04.641Z,102829.25
2023-05-19T21:20:34.136Z,102833.00
2023-05-19T21:23:02.237Z,102835.56
2023-05-19T21:25:30.983Z,102839.25
2023-05-19T21:27:59.206Z,102832.28
2023-05-19T21:30:26.998Z,102819.91
2023-05-19T21:32:54.826Z,102830.84
2023-05-19T21:35:22.778Z,102814.06
2023-05-19T21:37:51.899Z,102819.28
2023-05-19T21:40:19.698Z,102824.63
2023-05-19T21:42:47.468Z,102828.59
2023-05-19T21:45:15.324Z,102820.53
2023-05-19T21:47:43.117Z,102818.31
2023-05-19T21:50:15.573Z,102808.84
2023-05-19T21:52:43.350Z,102827.50
2023-05-19T21:55:12.592Z,102819.34
2023-05-19T21:57:40.462Z,102817.19
2023-05-19T22:00:12.888Z,102817.94
2023-05-19T22:02:40.839Z,102814.59
2023-05-19T22:05:09.396Z,102818.50
2023-05-19T22:07:37.308Z,102818.06
2023-05-19T22:10:05.719Z,102816.31
2023-05-19T22:12:34.860Z,102823.75
2023-05-19T22:15:03.542Z,102818.94
2023-05-19T22:17:31.756Z,102809.25
2023-05-19T22:19:59.576Z,102819.91
2023-05-19T22:22:27.328Z,102812.38
2023-05-19T22:24:55.339Z,102816.03
2023-05-19T22:27:23.183Z,102810.44
2023-05-19T22:29:52.318Z,102816.16
2023-05-19T22:32:20.120Z,102817.00
2023-05-19T22:34:47.958Z,102816.16
2023-05-19T22:37:15.768Z,102814.34
2023-05-19T22:39:43.503Z,102813.28
2023-05-19T22:42:11.589Z,102808.06
2023-05-19T22:44:39.341Z,102803.06
2023-05-19T22:47:13.295Z,102807.44
2023-05-19T22:49:41.107Z,102812.47
2023-05-19T22:52:10.727Z,102809.16
2023-05-19T22:54:38.862Z,102803.06
2023-05-19T22:57:07.087Z,102805.78
2023-05-19T22:59:35.483Z,102802.81
2023-05-19T23:02:03.236Z,102799.63
2023-05-19T23:04:33.105Z,102801.19
2023-05-19T23:07:01.198Z,102800.53
2023-05-19T23:09:29.188Z,102795.84
2023-05-19T23:11:56.939Z,102797.59
2023-05-19T23:14:25.873Z,102792.03
2023-05-19T23:16:54.911Z,102796.72
2023-05-19T23:19:22.885Z,102800.47
2023-05-19T23:21:52.211Z,102804.59
2023-05-19T23:24:19.969Z,102800.63
2023-05-19T23:26:47.762Z,102799.50
2023-05-19T23:29:15.752Z,102798.59
2023-05-19T23:31:43.649Z,102796.22
2023-05-19T23:34:11.542Z,102798.63
2023-05-19T23:36:39.299Z,102806.69
2023-05-19T23:39:08.416Z,102798.28
2023-05-19T23:41:36.725Z,102801.06
2023-05-19T23:44:04.610Z,102800.38
2023-05-19T23:46:32.422Z,102797.88
2023-05-19T23:49:00.533Z,102797.53
2023-05-19T23:51:28.290Z,102800.00
2023-05-19T23:53:56.101Z,102800.00
2023-05-19T23:56:25.365Z,102794.53
2023-05-19T23:58:53.147Z,102790.72
